Time;durP1;ratioP1;P1;durP2;ratioP2;P2;SDS_P1;SDS_P2;PMS_P1;PMS_P2;Temp;Humidity;BMP_temperature;BMP_pressure;BME280_temperature;BME280_humidity;BME280_pressure;Samples;Min_cycle;Max_cycle;Signal;HPM_P1;HPM_P2
2022/10/18 00:01:07;;;;;;;383.73;65.38;;;13.70;99.90;;;;;;5017979;28;20047;-71
2022/10/18 00:03:34;;;;;;;195.52;49.45;;;13.70;99.90;;;;;;5014421;28;20038;-71
2022/10/18 00:06:00;;;;;;;357.67;61.72;;;13.70;99.90;;;;;;5014260;28;20045;-71
2022/10/18 00:08:26;;;;;;;218.30;43.90;;;13.70;99.90;;;;;;5016025;28;20041;-71
2022/10/18 00:10:52;;;;;;;228.85;46.60;;;13.60;99.90;;;;;;5001039;28;20041;-71
2022/10/18 00:13:18;;;;;;;269.75;52.63;;;13.60;99.90;;;;;;5015019;28;20543;-70
2022/10/18 00:15:58;;;;;;;316.45;57.17;;;13.60;99.90;;;;;;5035781;28;20150;-71
2022/10/18 00:18:23;;;;;;;247.05;56.67;;;13.60;99.90;;;;;;5000434;28;20041;-71
2022/10/18 00:21:01;;;;;;;185.57;46.00;;;13.60;99.90;;;;;;5000257;28;20083;-70
2022/10/18 00:23:28;;;;;;;316.52;57.75;;;13.60;99.90;;;;;;4998842;28;20095;-71
2022/10/18 00:26:04;;;;;;;172.00;43.40;;;13.60;99.90;;;;;;5017390;28;20044;-70
2022/10/18 00:28:30;;;;;;;302.52;54.40;;;13.50;99.90;;;;;;4999212;28;20127;-70
2022/10/18 00:30:57;;;;;;;407.42;63.38;;;13.50;99.90;;;;;;5017051;28;20044;-71
2022/10/18 00:33:23;;;;;;;331.58;52.90;;;13.60;99.90;;;;;;5035153;28;20439;-71
2022/10/18 00:35:48;;;;;;;399.75;60.92;;;13.50;99.90;;;;;;5018608;28;20143;-71
2022/10/18 00:38:14;;;;;;;476.48;74.22;;;13.60;99.90;;;;;;4998678;28;20056;-70
2022/10/18 00:40:40;;;;;;;324.60;49.17;;;13.50;99.90;;;;;;5017367;28;20140;-70
2022/10/18 00:43:13;;;;;;;263.67;49.90;;;13.50;99.90;;;;;;5000522;28;20494;-71
2022/10/18 00:45:39;;;;;;;215.68;45.50;;;13.50;99.90;;;;;;5018197;28;20045;-71
2022/10/18 00:48:05;;;;;;;148.77;41.25;;;13.50;99.90;;;;;;4983014;28;20097;-71
2022/10/18 00:50:33;;;;;;;268.35;51.20;;;13.40;99.90;;;;;;5014593;28;20061;-70
2022/10/18 00:53:05;;;;;;;128.65;39.72;;;13.50;99.90;;;;;;5000594;28;20080;-71
2022/10/18 00:55:32;;;;;;;254.23;46.47;;;13.40;99.90;;;;;;5012132;28;20075;-71
2022/10/18 00:57:59;;;;;;;151.43;41.10;;;13.40;99.90;;;;;;5011398;28;20049;-71
2022/10/18 01:00:25;;;;;;;230.57;52.53;;;13.40;99.90;;;;;;5015797;28;20077;-71
2022/10/18 01:02:51;;;;;;;156.00;43.17;;;13.40;99.90;;;;;;5032252;28;20521;-70
2022/10/18 01:05:18;;;;;;;240.63;44.78;;;13.40;99.90;;;;;;5014503;28;20045;-70
2022/10/18 01:08:02;;;;;;;241.05;45.55;;;13.40;99.90;;;;;;5032823;28;20372;-70
2022/10/18 01:10:44;;;;;;;355.90;59.38;;;13.30;99.90;;;;;;5000589;28;20091;-70
2022/10/18 01:13:29;;;;;;;287.67;52.15;;;13.30;99.90;;;;;;5015970;28;20033;-69
2022/10/18 01:16:03;;;;;;;213.95;49.08;;;13.40;99.90;;;;;;5011774;28;20449;-70
2022/10/18 01:19:06;;;;;;;288.90;52.70;;;13.40;99.90;;;;;;5017643;28;20091;-69
2022/10/18 01:21:43;;;;;;;273.70;54.42;;;13.30;99.90;;;;;;5016884;28;20042;-70
2022/10/18 01:24:21;;;;;;;274.98;50.58;;;13.30;99.90;;;;;;5003351;28;20866;-70
2022/10/18 01:27:19;;;;;;;235.88;53.55;;;13.30;99.90;;;;;;5013679;28;20056;-70
2022/10/18 01:29:51;;;;;;;161.45;43.95;;;13.30;99.90;;;;;;4995299;28;20058;-70
2022/10/18 01:32:31;;;;;;;205.10;46.45;;;13.30;99.90;;;;;;5000401;28;20044;-70
2022/10/18 01:35:00;;;;;;;167.52;40.67;;;13.30;99.90;;;;;;5012257;28;20073;-71
2022/10/18 01:37:27;;;;;;;230.52;52.03;;;13.30;99.90;;;;;;5034806;28;20046;-71
2022/10/18 01:39:56;;;;;;;259.33;56.67;;;13.30;99.90;;;;;;4996079;28;20050;-71
2022/10/18 01:42:23;;;;;;;264.67;53.72;;;13.30;99.90;;;;;;5016023;28;20502;-71
2022/10/18 01:44:51;;;;;;;328.52;59.05;;;13.30;99.90;;;;;;4994689;28;20076;-71
2022/10/18 01:47:18;;;;;;;270.00;57.38;;;13.30;99.90;;;;;;5012068;28;20040;-71
2022/10/18 01:49:43;;;;;;;202.98;45.40;;;13.30;99.90;;;;;;5012470;28;20046;-71
2022/10/18 01:52:15;;;;;;;276.83;52.33;;;13.30;99.90;;;;;;4996483;28;20034;-71
2022/10/18 01:54:47;;;;;;;230.18;53.00;;;13.30;99.90;;;;;;5012847;28;20048;-71
2022/10/18 01:57:35;;;;;;;251.57;54.58;;;13.30;99.90;;;;;;5012196;28;20045;-71
2022/10/18 02:00:11;;;;;;;158.15;44.60;;;13.30;99.90;;;;;;5011440;28;20049;-70
2022/10/18 02:02:39;;;;;;;174.45;44.03;;;13.30;99.90;;;;;;4996639;28;20099;-70
2022/10/18 02:05:42;;;;;;;258.70;55.10;;;13.30;99.90;;;;;;5012808;28;20045;-71
2022/10/18 02:08:28;;;;;;;136.48;43.28;;;13.30;99.90;;;;;;5011664;28;20605;-71
2022/10/18 02:11:06;;;;;;;186.98;48.63;;;13.20;99.90;;;;;;5011575;28;20046;-71
2022/10/18 02:13:39;;;;;;;244.20;49.67;;;13.20;99.90;;;;;;5009788;28;20034;-71
2022/10/18 02:16:08;;;;;;;;;;;13.20;99.90;;;;;;5016087;28;20043;-71
2022/10/18 02:18:39;;;;;;;428.52;67.40;;;13.20;99.90;;;;;;5012873;28;19921;-70
2022/10/18 02:21:09;;;;;;;196.55;39.22;;;13.20;99.90;;;;;;4999085;28;20292;-71
2022/10/18 02:23:36;;;;;;;327.92;51.97;;;13.10;99.90;;;;;;4996038;28;20148;-71
2022/10/18 02:26:02;;;;;;;359.00;56.10;;;13.10;99.90;;;;;;5015295;28;20513;-71
2022/10/18 02:28:27;;;;;;;256.00;43.40;;;13.10;99.90;;;;;;5008427;28;20069;-71
2022/10/18 02:31:17;;;;;;;335.30;52.20;;;13.10;99.90;;;;;;5032932;28;20049;-70
2022/10/18 02:33:52;;;;;;;362.90;53.80;;;13.10;99.90;;;;;;5014507;28;20055;-71
2022/10/18 02:36:30;;;;;;;182.95;40.28;;;13.10;99.90;;;;;;5010758;28;20521;-71
2022/10/18 02:39:02;;;;;;;372.50;51.75;;;13.10;99.90;;;;;;5010962;28;20037;-71
2022/10/18 02:41:30;;;;;;;328.55;53.78;;;13.00;99.90;;;;;;5012890;28;20092;-70
2022/10/18 02:43:56;;;;;;;248.60;43.22;;;13.10;99.90;;;;;;5014560;28;20529;-71
2022/10/18 02:46:22;;;;;;;249.75;42.80;;;13.00;99.90;;;;;;5014407;28;20037;-71
2022/10/18 02:48:48;;;;;;;218.10;40.65;;;13.00;99.90;;;;;;4997078;28;20092;-70
2022/10/18 02:51:14;;;;;;;428.55;60.72;;;13.00;99.90;;;;;;5013533;28;20041;-70
2022/10/18 02:53:40;;;;;;;314.88;49.42;;;13.00;99.90;;;;;;5033099;28;20091;-71
2022/10/18 02:56:06;;;;;;;183.63;39.70;;;13.00;99.90;;;;;;4997688;28;20517;-70
2022/10/18 02:58:31;;;;;;;206.88;42.10;;;13.00;99.90;;;;;;5015112;28;20077;-70
2022/10/18 03:00:57;;;;;;;309.42;51.78;;;13.00;99.90;;;;;;5015654;28;20092;-70
2022/10/18 03:03:23;;;;;;;226.07;43.92;;;13.00;99.90;;;;;;5014324;28;20549;-71
2022/10/18 03:05:49;;;;;;;245.40;47.75;;;12.90;99.90;;;;;;5014802;28;20090;-71
2022/10/18 03:08:15;;;;;;;232.88;44.80;;;12.90;99.90;;;;;;4999186;28;20084;-71
2022/10/18 03:10:44;;;;;;;294.42;47.90;;;12.90;99.90;;;;;;5013828;28;20073;-71
2022/10/18 03:13:10;;;;;;;231.07;45.78;;;12.90;99.90;;;;;;5013648;28;20037;-71
2022/10/18 03:15:35;;;;;;;289.70;51.35;;;12.90;99.90;;;;;;5029915;28;20040;-70
2022/10/18 03:18:02;;;;;;;251.02;45.92;;;12.80;99.90;;;;;;4999008;28;20072;-71
2022/10/18 03:20:27;;;;;;;120.68;35.80;;;12.80;99.90;;;;;;5012693;28;20288;-70
2022/10/18 03:22:53;;;;;;;194.07;40.00;;;12.80;99.90;;;;;;5011525;28;20046;-70
2022/10/18 03:25:19;;;;;;;172.90;37.30;;;12.80;99.90;;;;;;5014918;28;20068;-70
2022/10/18 03:27:45;;;;;;;217.80;43.97;;;12.80;99.90;;;;;;5002014;28;20041;-70
2022/10/18 03:30:12;;;;;;;194.20;40.95;;;12.80;99.90;;;;;;5002672;28;20213;-70
2022/10/18 03:32:38;;;;;;;236.52;43.08;;;12.70;99.90;;;;;;5000272;28;20498;-70
2022/10/18 03:35:05;;;;;;;121.10;34.72;;;12.70;99.90;;;;;;5018266;28;20037;-71
2022/10/18 03:37:31;;;;;;;173.27;39.10;;;12.70;99.90;;;;;;4985067;28;20115;-70
2022/10/18 03:39:56;;;;;;;151.88;37.60;;;12.70;99.90;;;;;;5018082;28;20455;-71
2022/10/18 03:42:22;;;;;;;156.18;38.33;;;12.20;99.90;;;;;;5015133;28;20057;-71
2022/10/18 03:44:48;;;;;;;147.98;39.08;;;12.60;99.90;;;;;;5002049;28;20045;-71
2022/10/18 03:47:14;;;;;;;117.13;31.25;;;12.60;99.90;;;;;;5017295;28;20045;-70
2022/10/18 03:49:39;;;;;;;252.80;48.45;;;12.60;99.90;;;;;;4986231;28;20040;-71
2022/10/18 03:52:05;;;;;;;175.65;40.22;;;12.60;99.90;;;;;;5017498;28;20069;-70
2022/10/18 03:54:32;;;;;;;169.23;34.90;;;12.60;99.90;;;;;;5019907;28;20590;-70
2022/10/18 03:56:57;;;;;;;181.13;39.60;;;12.60;99.90;;;;;;5000081;28;20033;-70
2022/10/18 03:59:23;;;;;;;119.90;34.75;;;12.50;99.90;;;;;;5017114;28;20080;-70
2022/10/18 04:01:49;;;;;;;111.75;31.15;;;12.50;99.90;;;;;;5014260;28;20434;-70
2022/10/18 04:04:15;;;;;;;135.18;34.28;;;12.50;99.90;;;;;;5001499;28;20143;-70
2022/10/18 04:06:40;;;;;;;157.43;37.13;;;12.50;99.90;;;;;;5002470;28;20037;-71
2022/10/18 04:09:07;;;;;;;177.15;40.72;;;12.40;99.90;;;;;;4998764;28;20088;-71
2022/10/18 04:11:32;;;;;;;119.22;31.98;;;12.40;99.90;;;;;;5031933;28;20029;-70
2022/10/18 04:13:58;;;;;;;175.73;40.53;;;12.40;99.90;;;;;;5017697;28;20322;-70
2022/10/18 04:16:24;;;;;;;255.18;43.65;;;12.40;99.90;;;;;;4984723;28;20037;-71
2022/10/18 04:18:50;;;;;;;194.32;38.47;;;12.40;99.90;;;;;;5013561;28;20087;-70
2022/10/18 04:21:15;;;;;;;245.45;45.80;;;12.40;99.90;;;;;;5015632;28;20702;-71
2022/10/18 04:23:41;;;;;;;135.00;32.80;;;12.30;99.90;;;;;;4998546;28;20064;-71
2022/10/18 04:26:07;;;;;;;265.40;46.28;;;12.30;99.90;;;;;;5015949;28;20038;-70
2022/10/18 04:28:34;;;;;;;213.98;41.15;;;12.30;99.90;;;;;;4996544;28;20042;-71
2022/10/18 04:31:00;;;;;;;194.23;39.08;;;12.30;99.90;;;;;;5016410;28;20036;-71
2022/10/18 04:33:26;;;;;;;178.57;34.45;;;12.30;99.90;;;;;;5014726;28;20052;-71
2022/10/18 04:35:52;;;;;;;171.20;34.92;;;12.30;99.90;;;;;;5017157;28;20426;-70
2022/10/18 04:38:19;;;;;;;227.82;40.35;;;12.20;99.90;;;;;;5015438;28;20076;-70
2022/10/18 04:40:45;;;;;;;189.50;38.70;;;12.20;99.90;;;;;;5018851;28;20362;-70
2022/10/18 04:43:11;;;;;;;202.85;39.65;;;12.20;99.90;;;;;;4999511;28;20092;-70
2022/10/18 04:45:37;;;;;;;137.65;31.88;;;12.20;99.90;;;;;;5002033;28;20042;-70
2022/10/18 04:48:03;;;;;;;196.65;40.63;;;12.20;99.90;;;;;;5018081;28;20083;-70
2022/10/18 04:50:28;;;;;;;143.80;34.22;;;12.20;99.90;;;;;;5029089;28;20098;-70
2022/10/18 04:52:54;;;;;;;158.57;35.63;;;12.20;99.90;;;;;;5001161;28;20046;-70
2022/10/18 04:55:20;;;;;;;210.02;40.28;;;12.20;99.90;;;;;;4985006;28;20048;-70
2022/10/18 04:57:46;;;;;;;223.63;45.90;;;12.20;99.90;;;;;;4998584;28;20395;-70
2022/10/18 05:00:12;;;;;;;98.05;32.97;;;12.20;99.90;;;;;;5018400;28;20049;-70
2022/10/18 05:02:38;;;;;;;253.90;47.90;;;12.20;99.90;;;;;;4998031;28;20081;-71
2022/10/18 05:05:04;;;;;;;255.50;43.00;;;12.20;99.90;;;;;;4999172;28;20045;-70
2022/10/18 05:07:30;;;;;;;236.13;40.08;;;12.20;99.90;;;;;;4998919;28;20047;-71
2022/10/18 05:09:56;;;;;;;260.08;43.72;;;12.10;99.90;;;;;;4982583;28;20394;-70
2022/10/18 05:12:21;;;;;;;235.88;40.30;;;12.10;99.90;;;;;;4994976;28;20096;-70
2022/10/18 05:14:47;;;;;;;171.65;31.52;;;12.10;99.90;;;;;;5000415;28;20634;-71
2022/10/18 05:17:13;;;;;;;233.90;38.22;;;12.10;99.90;;;;;;5002796;28;20072;-70
2022/10/18 05:19:39;;;;;;;191.65;36.88;;;12.10;99.90;;;;;;5011809;28;20117;-70
2022/10/18 05:22:05;;;;;;;201.10;39.40;;;12.10;99.90;;;;;;5002289;28;20135;-70
2022/10/18 05:24:30;;;;;;;123.53;32.88;;;12.10;99.90;;;;;;4997602;28;20119;-70
2022/10/18 05:26:57;;;;;;;185.32;37.72;;;12.00;99.90;;;;;;4996684;28;20037;-70
2022/10/18 05:29:23;;;;;;;211.38;38.33;;;12.00;99.90;;;;;;4998774;28;20044;-71
2022/10/18 05:31:49;;;;;;;124.43;34.90;;;12.00;99.90;;;;;;5013574;28;20048;-70
2022/10/18 05:34:16;;;;;;;212.20;42.90;;;12.00;99.90;;;;;;5009336;28;20041;-70
2022/10/18 05:36:42;;;;;;;203.85;41.85;;;12.00;99.90;;;;;;4985189;28;20037;-70
2022/10/18 05:39:08;;;;;;;127.82;31.17;;;12.00;99.90;;;;;;5012281;28;20052;-70
2022/10/18 05:41:35;;;;;;;143.88;31.92;;;11.90;99.90;;;;;;5016818;28;20534;-71
2022/10/18 05:44:05;;;;;;;162.63;34.03;;;11.90;99.90;;;;;;5011919;28;20042;-70
2022/10/18 05:46:31;;;;;;;137.43;31.40;;;11.90;99.90;;;;;;5032577;28;20048;-70
2022/10/18 05:48:57;;;;;;;117.10;30.17;;;11.90;99.90;;;;;;5010208;28;20033;-71
2022/10/18 05:51:22;;;;;;;173.45;35.13;;;11.90;99.90;;;;;;4999081;28;20050;-70
2022/10/18 05:53:48;;;;;;;128.45;31.15;;;11.80;99.90;;;;;;5013222;28;20056;-70
2022/10/18 05:56:14;;;;;;;137.00;32.50;;;11.70;99.90;;;;;;5015087;28;20120;-70
2022/10/18 05:58:41;;;;;;;136.10;30.45;;;11.80;99.90;;;;;;5011589;28;20044;-70
2022/10/18 06:01:08;;;;;;;96.53;27.27;;;11.80;99.90;;;;;;5031837;28;20519;-70
2022/10/18 06:03:34;;;;;;;201.68;35.35;;;11.80;99.90;;;;;;4990749;28;20461;-70
2022/10/18 06:06:05;;;;;;;104.95;27.58;;;11.70;99.90;;;;;;4991305;28;20174;-70
2022/10/18 06:08:31;;;;;;;109.38;27.63;;;11.70;99.90;;;;;;5007428;28;20049;-70
2022/10/18 06:10:57;;;;;;;136.25;29.98;;;11.70;99.90;;;;;;5001087;28;20069;-71
2022/10/18 06:13:23;;;;;;;120.63;26.77;;;11.70;99.90;;;;;;4992773;28;20072;-70
2022/10/18 06:15:49;;;;;;;207.82;35.35;;;11.70;99.90;;;;;;5011309;28;20463;-70
2022/10/18 06:18:15;;;;;;;157.20;26.33;;;11.60;99.90;;;;;;4994916;28;20048;-70
2022/10/18 06:20:40;;;;;;;245.05;37.40;;;11.60;99.90;;;;;;4995202;28;20041;-71
2022/10/18 06:23:09;;;;;;;119.38;27.48;;;11.60;99.90;;;;;;5011757;28;20422;-69
2022/10/18 06:25:35;;;;;;;148.52;30.38;;;11.60;99.90;;;;;;4994349;28;20183;-70
2022/10/18 06:28:02;;;;;;;124.65;24.58;;;11.60;99.90;;;;;;4996413;28;20116;-70
2022/10/18 06:30:28;;;;;;;87.55;24.52;;;11.60;99.90;;;;;;4993913;28;20558;-70
2022/10/18 06:32:57;;;;;;;107.18;24.33;;;11.60;99.90;;;;;;5011849;28;20124;-70
2022/10/18 06:35:23;;;;;;;109.57;23.38;;;11.50;99.90;;;;;;4994941;28;20099;-70
2022/10/18 06:37:49;;;;;;;102.85;24.45;;;11.50;99.90;;;;;;4994725;28;20072;-70
2022/10/18 06:40:14;;;;;;;54.30;19.27;;;11.50;99.90;;;;;;4978032;28;20169;-70
2022/10/18 06:42:41;;;;;;;80.78;23.40;;;11.40;99.90;;;;;;4977234;28;20057;-69
2022/10/18 06:45:10;;;;;;;105.13;27.10;;;11.50;99.90;;;;;;5005073;28;20053;-71
2022/10/18 06:47:36;;;;;;;133.23;27.10;;;11.40;99.90;;;;;;4980979;28;20541;-70
2022/10/18 06:50:01;;;;;;;122.13;23.90;;;11.50;99.90;;;;;;5002475;28;20042;-70
2022/10/18 06:52:27;;;;;;;108.65;23.23;;;11.40;99.90;;;;;;4962778;28;20061;-70
2022/10/18 06:54:53;;;;;;;130.27;24.60;;;11.40;99.90;;;;;;5005192;28;20033;-70
2022/10/18 06:57:19;;;;;;;130.20;27.77;;;11.40;99.90;;;;;;5009145;28;20068;-70
2022/10/18 06:59:50;;;;;;;164.35;26.42;;;11.40;99.90;;;;;;4995858;28;20033;-70
2022/10/18 07:02:19;;;;;;;126.22;24.40;;;11.40;99.90;;;;;;4999343;28;20082;-71
2022/10/18 07:04:44;;;;;;;141.15;26.05;;;11.30;99.90;;;;;;5017576;28;20109;-70
2022/10/18 07:07:10;;;;;;;122.15;22.70;;;11.30;99.90;;;;;;4998991;28;20088;-71
2022/10/18 07:09:42;;;;;;;56.10;19.70;;;11.30;99.90;;;;;;4998103;28;20034;-70
2022/10/18 07:12:11;;;;;;;94.57;23.80;;;11.30;99.90;;;;;;5033053;28;20049;-70
2022/10/18 07:14:39;;;;;;;80.78;19.30;;;11.30;99.90;;;;;;4999410;28;20044;-70
2022/10/18 07:17:06;;;;;;;83.63;20.95;;;11.30;99.90;;;;;;4999502;28;20048;-70
2022/10/18 07:19:38;;;;;;;66.82;19.25;;;11.30;99.90;;;;;;5015118;28;20070;-70
2022/10/18 07:22:06;;;;;;;59.30;18.35;;;11.40;99.90;;;;;;5032559;28;20552;-70
2022/10/18 07:24:32;;;;;;;61.40;19.88;;;11.40;99.90;;;;;;5015234;28;20038;-70
2022/10/18 07:26:58;;;;;;;66.22;20.70;;;11.40;99.90;;;;;;5015612;28;20048;-70
2022/10/18 07:29:23;;;;;;;37.97;16.92;;;11.40;99.90;;;;;;5015119;28;20419;-70
2022/10/18 07:31:49;;;;;;;41.17;17.38;;;11.30;99.90;;;;;;4998868;28;20076;-71
2022/10/18 07:34:16;;;;;;;43.10;16.63;;;11.40;99.90;;;;;;5015520;28;20041;-70
2022/10/18 07:36:42;;;;;;;47.58;17.40;;;11.40;99.90;;;;;;5015384;28;20041;-71
2022/10/18 07:39:08;;;;;;;33.53;16.15;;;11.40;99.90;;;;;;4998517;28;20037;-70
2022/10/18 07:41:38;;;;;;;41.08;19.25;;;11.60;99.90;;;;;;4999642;28;20128;-70
2022/10/18 07:44:04;;;;;;;39.97;16.02;;;11.70;99.90;;;;;;5000085;28;20116;-70
2022/10/18 07:46:33;;;;;;;33.67;15.02;;;11.70;99.90;;;;;;5015015;28;20072;-71
2022/10/18 07:49:02;;;;;;;28.33;14.60;;;11.70;99.90;;;;;;4998847;28;20091;-70
2022/10/18 07:51:31;;;;;;;43.13;15.98;;;11.60;99.90;;;;;;4999269;28;20069;-70
2022/10/18 07:53:58;;;;;;;33.30;15.00;;;11.60;99.90;;;;;;4998250;28;20067;-70
2022/10/18 07:56:26;;;;;;;28.73;14.63;;;11.50;99.90;;;;;;5014501;28;20494;-70
2022/10/18 07:58:54;;;;;;;22.88;12.73;;;11.50;99.90;;;;;;5014255;28;20041;-70
2022/10/18 08:01:24;;;;;;;24.55;13.52;;;11.50;99.90;;;;;;5011902;28;20048;-71
2022/10/18 08:03:55;;;;;;;28.00;14.50;;;11.40;99.90;;;;;;5011904;28;20103;-71
2022/10/18 08:06:27;;;;;;;24.45;14.63;;;11.40;99.90;;;;;;5010939;28;20076;-70
2022/10/18 08:08:53;;;;;;;26.33;14.85;;;11.40;99.90;;;;;;5011639;28;20454;-70
2022/10/18 08:11:22;;;;;;;28.10;14.88;;;11.40;99.90;;;;;;4994169;28;20050;-70
2022/10/18 08:13:48;;;;;;;22.33;14.93;;;11.50;99.90;;;;;;5012616;28;20048;-70
2022/10/18 08:16:20;;;;;;;26.17;15.90;;;11.50;99.90;;;;;;4995530;28;20042;-70
2022/10/18 08:18:47;;;;;;;30.25;17.02;;;11.60;99.90;;;;;;5011523;28;20038;-71
2022/10/18 08:21:15;;;;;;;34.53;17.02;;;11.60;99.90;;;;;;4978768;28;20138;-71
2022/10/18 08:23:42;;;;;;;28.70;14.65;;;11.60;99.90;;;;;;5013497;28;20057;-70
2022/10/18 08:26:12;;;;;;;30.17;15.85;;;11.70;99.90;;;;;;4979098;28;20414;-70
2022/10/18 08:28:43;;;;;;;32.00;16.33;;;11.70;99.90;;;;;;5027755;28;20170;-71
2022/10/18 08:31:18;;;;;;;25.67;15.15;;;11.80;99.90;;;;;;5011422;28;20495;-70
2022/10/18 08:33:47;;;;;;;30.58;15.45;;;11.90;99.90;;;;;;5009754;28;20462;-70
2022/10/18 08:36:14;;;;;;;52.75;18.80;;;12.00;99.90;;;;;;5014626;28;20033;-70
2022/10/18 08:38:41;;;;;;;61.83;18.13;;;12.00;99.90;;;;;;5011201;28;20415;-70
2022/10/18 08:41:28;;;;;;;48.25;16.58;;;12.10;99.90;;;;;;4995103;28;20100;-70
2022/10/18 08:44:10;;;;;;;39.33;17.35;;;12.10;99.90;;;;;;5029442;28;20422;-70
2022/10/18 08:46:40;;;;;;;31.85;15.73;;;12.10;99.90;;;;;;4994811;28;20128;-70
2022/10/18 08:49:16;;;;;;;31.98;16.98;;;12.10;99.90;;;;;;5010868;28;20079;-70
2022/10/18 08:51:48;;;;;;;29.35;15.57;;;12.20;99.90;;;;;;5010769;28;20046;-70
2022/10/18 08:54:27;;;;;;;26.30;14.77;;;12.20;99.90;;;;;;5011483;28;20091;-70
2022/10/18 08:57:13;;;;;;;19.33;12.98;;;12.20;99.90;;;;;;5011205;28;20076;-70
2022/10/18 08:59:40;;;;;;;29.65;13.85;;;12.20;99.90;;;;;;5010538;28;20518;-70
2022/10/18 09:02:15;;;;;;;24.10;13.90;;;12.20;99.90;;;;;;5010461;28;20554;-70
2022/10/18 09:04:41;;;;;;;26.95;15.13;;;12.20;99.90;;;;;;5011878;28;20132;-69
2022/10/18 09:07:15;;;;;;;25.17;15.00;;;12.20;99.90;;;;;;5010954;28;20136;-70
2022/10/18 09:09:53;;;;;;;30.17;13.95;;;12.40;99.90;;;;;;5010822;28;20593;-69
2022/10/18 09:12:44;;;;;;;25.38;13.73;;;12.40;99.90;;;;;;5010921;28;20347;-69
2022/10/18 09:15:32;;;;;;;21.27;12.93;;;12.50;99.90;;;;;;5029927;28;20098;-69
2022/10/18 09:18:19;;;;;;;18.80;13.10;;;12.50;99.90;;;;;;4992736;28;20039;-69
2022/10/18 09:20:52;;;;;;;22.70;12.02;;;12.60;99.90;;;;;;5010567;28;20049;-69
2022/10/18 09:23:36;;;;;;;20.33;12.15;;;12.60;99.90;;;;;;5012210;28;20056;-69
2022/10/18 09:26:24;;;;;;;25.75;12.80;;;12.60;99.90;;;;;;5011590;28;20045;-70
2022/10/18 09:29:11;;;;;;;21.52;12.93;;;12.70;99.90;;;;;;5011163;28;20499;-70
2022/10/18 09:31:39;;;;;;;20.42;12.25;;;12.80;99.90;;;;;;4995488;28;20038;-70
2022/10/18 09:34:16;;;;;;;25.73;11.77;;;13.00;99.90;;;;;;5012848;28;20038;-70
2022/10/18 09:36:44;;;;;;;19.60;12.25;;;13.10;99.90;;;;;;5012984;28;20041;-70
2022/10/18 09:39:17;;;;;;;20.63;12.15;;;13.10;99.90;;;;;;5016349;28;20033;-70
2022/10/18 09:42:11;;;;;;;21.42;11.85;;;13.20;99.90;;;;;;5014569;28;20124;-69
2022/10/18 09:44:41;;;;;;;17.30;12.02;;;13.40;99.90;;;;;;4998784;28;20042;-70
2022/10/18 09:47:37;;;;;;;17.48;11.05;;;13.50;99.90;;;;;;4996307;28;20131;-70
2022/10/18 09:50:33;;;;;;;17.08;10.73;;;13.70;99.90;;;;;;5011982;28;20068;-69
2022/10/18 09:53:24;;;;;;;16.55;10.45;;;13.80;99.90;;;;;;5015187;28;21119;-69
2022/10/18 09:56:11;;;;;;;17.95;9.85;;;13.90;99.90;;;;;;5012836;28;20564;-70
2022/10/18 09:58:45;;;;;;;16.02;8.68;;;14.00;99.90;;;;;;5012399;28;20039;-70
2022/10/18 10:01:23;;;;;;;16.15;9.45;;;14.10;99.90;;;;;;5012564;28;20395;-70
2022/10/18 10:03:49;;;;;;;16.60;8.20;;;14.10;99.90;;;;;;5012708;28;20123;-70
2022/10/18 10:06:23;;;;;;;13.90;8.40;;;14.20;99.90;;;;;;5012513;28;20502;-70
2022/10/18 10:08:56;;;;;;;13.73;8.07;;;14.30;99.90;;;;;;5011407;28;20041;-70
2022/10/18 10:11:46;;;;;;;11.77;6.40;;;14.40;99.90;;;;;;5011360;28;20342;-70
2022/10/18 10:14:22;;;;;;;15.25;6.78;;;14.60;99.90;;;;;;5021420;28;20051;-71
2022/10/18 10:16:51;;;;;;;11.98;6.90;;;14.70;99.90;;;;;;5012672;28;20040;-70
2022/10/18 10:19:21;;;;;;;12.85;6.30;;;14.80;99.90;;;;;;5013900;28;20485;-70
2022/10/18 10:21:49;;;;;;;13.48;6.25;;;14.90;99.90;;;;;;5010821;28;20037;-71
2022/10/18 10:24:48;;;;;;;14.50;5.22;;;14.90;99.90;;;;;;4995902;28;20487;-70
2022/10/18 10:27:44;;;;;;;16.60;6.00;;;15.00;99.90;;;;;;4963002;28;20053;-70
2022/10/18 10:30:33;;;;;;;14.68;5.50;;;15.10;99.90;;;;;;4996089;28;20060;-70
2022/10/18 10:33:00;;;;;;;17.67;5.38;;;15.20;99.90;;;;;;5012052;28;20128;-70
2022/10/18 10:35:37;;;;;;;15.48;5.72;;;15.30;99.90;;;;;;4995301;28;20541;-70
2022/10/18 10:38:03;;;;;;;15.07;5.05;;;15.40;99.90;;;;;;5012014;28;20033;-70
2022/10/18 10:40:35;;;;;;;13.70;5.07;;;15.50;99.90;;;;;;5012097;28;20065;-70
2022/10/18 10:43:03;;;;;;;16.27;5.43;;;15.60;99.90;;;;;;5013274;28;20076;-71
2022/10/18 10:45:40;;;;;;;9.35;4.68;;;15.60;99.90;;;;;;5016315;28;20052;-71
2022/10/18 10:48:15;;;;;;;18.02;7.32;;;15.70;99.90;;;;;;5014021;28;20102;-71
2022/10/18 10:51:05;;;;;;;14.30;7.38;;;15.70;99.90;;;;;;4998873;28;20057;-70
2022/10/18 10:54:11;;;;;;;16.52;7.57;;;15.80;99.90;;;;;;5014062;28;20029;-70
2022/10/18 10:57:09;;;;;;;27.02;14.30;;;15.80;99.90;;;;;;4982593;28;20042;-70
2022/10/18 10:59:45;;;;;;;18.60;4.75;;;15.90;99.90;;;;;;5007912;28;20045;-70
2022/10/18 11:02:23;;;;;;;13.70;6.00;;;16.00;99.90;;;;;;5008523;28;20061;-70
2022/10/18 11:04:54;;;;;;;14.77;4.10;;;16.00;99.90;;;;;;4999313;28;20368;-69
2022/10/18 11:07:34;;;;;;;11.85;3.50;;;16.00;99.90;;;;;;4997742;28;20522;-69
2022/10/18 11:10:03;;;;;;;11.93;4.05;;;15.90;99.90;;;;;;5002422;28;20049;-68
2022/10/18 11:12:45;;;;;;;13.35;3.67;;;15.80;99.90;;;;;;4985660;28;20090;-69
2022/10/18 11:15:13;;;;;;;17.73;12.10;;;15.80;99.90;;;;;;5001381;28;20882;-68
2022/10/18 11:18:13;;;;;;;15.95;5.38;;;15.70;99.90;;;;;;4981902;28;20046;-69
2022/10/18 11:20:44;;;;;;;11.30;5.22;;;15.80;99.90;;;;;;4983291;28;20128;-69
2022/10/18 11:23:12;;;;;;;30.05;22.13;;;15.90;99.90;;;;;;4999580;28;20124;-68
2022/10/18 11:25:44;;;;;;;11.63;5.07;;;15.90;99.90;;;;;;5000445;28;20970;-70
2022/10/18 11:28:34;;;;;;;12.75;3.50;;;15.90;99.90;;;;;;4996584;28;20537;-69
2022/10/18 11:31:27;;;;;;;13.93;3.63;;;15.90;99.90;;;;;;4982177;28;20038;-69
2022/10/18 11:34:08;;;;;;;10.10;2.92;;;15.90;99.90;;;;;;4979162;28;20131;-69
2022/10/18 11:36:47;;;;;;;10.48;4.32;;;16.10;99.90;;;;;;4980216;28;20495;-70
2022/10/18 11:39:36;;;;;;;13.50;8.27;;;16.00;99.90;;;;;;5014699;28;20136;-68
2022/10/18 11:42:14;;;;;;;16.50;3.90;;;16.20;99.90;;;;;;4997187;28;20057;-69
2022/10/18 11:45:05;;;;;;;21.33;13.68;;;16.20;99.90;;;;;;4995348;28;20172;-69
2022/10/18 11:47:39;;;;;;;12.30;4.53;;;16.40;99.90;;;;;;5000747;28;20125;-69
2022/10/18 11:50:35;;;;;;;13.15;4.78;;;16.50;99.90;;;;;;4983295;28;21291;-70
2022/10/18 11:53:42;;;;;;;19.95;15.82;;;16.60;99.90;;;;;;5007430;28;20045;-69
2022/10/18 11:56:14;;;;;;;14.70;10.30;;;16.50;99.90;;;;;;5006520;28;20048;-70
2022/10/18 11:58:51;;;;;;;12.70;7.13;;;16.60;99.90;;;;;;5009187;28;20553;-70
2022/10/18 12:01:39;;;;;;;10.23;3.00;;;16.70;99.90;;;;;;5005942;28;20045;-70
2022/10/18 12:04:04;;;;;;;13.40;4.93;;;16.80;99.90;;;;;;5025344;28;20045;-69
2022/10/18 12:06:37;;;;;;;13.63;3.63;;;16.70;99.90;;;;;;5008433;28;20043;-70
2022/10/18 12:09:33;;;;;;;10.38;3.40;;;16.50;99.90;;;;;;5007231;28;20057;-69
2022/10/18 12:12:09;;;;;;;10.93;2.78;;;16.40;99.90;;;;;;5023661;28;20625;-69
2022/10/18 12:14:41;;;;;;;8.57;2.28;;;16.50;99.90;;;;;;5004725;28;20048;-69
2022/10/18 12:17:34;;;;;;;9.88;2.63;;;16.40;99.90;;;;;;5007284;28;20041;-69
2022/10/18 12:20:10;;;;;;;17.13;2.58;;;16.50;99.90;;;;;;5004861;28;20155;-67
2022/10/18 12:22:41;;;;;;;10.43;3.83;;;16.40;99.90;;;;;;5021479;28;20076;-70
2022/10/18 12:25:16;;;;;;;9.75;2.50;;;16.10;99.90;;;;;;5003546;28;20141;-69
2022/10/18 12:28:06;;;;;;;10.13;4.68;;;16.00;99.90;;;;;;5017243;28;20049;-70
2022/10/18 12:30:59;;;;;;;13.25;6.50;;;16.00;99.90;;;;;;4986509;28;20398;-69
2022/10/18 12:33:29;;;;;;;15.30;8.90;;;16.00;99.90;;;;;;5002109;28;20503;-69
2022/10/18 12:36:20;;;;;;;11.35;2.63;;;16.00;99.90;;;;;;5022944;28;20600;-69
2022/10/18 12:39:05;;;;;;;10.63;5.20;;;16.00;99.90;;;;;;5003909;28;20037;-69
2022/10/18 12:41:34;;;;;;;7.32;2.28;;;16.10;99.90;;;;;;5004299;28;20433;-69
2022/10/18 12:44:03;;;;;;;11.30;2.58;;;16.10;99.90;;;;;;5005626;28;20118;-69
2022/10/18 12:46:50;;;;;;;12.38;4.03;;;16.20;99.90;;;;;;5006059;28;20646;-69